Time;durP1;ratioP1;P1;durP2;ratioP2;P2;SDS_P1;SDS_P2;PMS_P1;PMS_P2;Temp;Humidity;BMP_temperature;BMP_pressure;BME280_temperature;BME280_humidity;BME280_pressure;Samples;Min_cycle;Max_cycle;Signal;HPM_P1;HPM_P2
2021/10/03 00:00:18;;;;;;;1.92;1.13;;;23.10;51.20;;;;;;5065269;28;20391;-67
2021/10/03 00:02:48;;;;;;;1.95;1.23;;;23.10;51.10;;;;;;5064518;28;20380;-67
2021/10/03 00:05:15;;;;;;;2.05;1.38;;;23.10;51.20;;;;;;5064950;28;20390;-67
2021/10/03 00:07:46;;;;;;;2.50;1.40;;;23.10;51.20;;;;;;5065083;28;20402;-67
2021/10/03 00:10:13;;;;;;;2.40;1.20;;;23.10;51.00;;;;;;5064493;28;20398;-67
2021/10/03 00:12:39;;;;;;;2.13;1.40;;;23.10;51.10;;;;;;5049352;28;20787;-67
2021/10/03 00:15:08;;;;;;;2.50;1.30;;;23.10;51.20;;;;;;5054873;28;20832;-67
2021/10/03 00:17:34;;;;;;;3.85;1.30;;;23.00;51.10;;;;;;5063923;28;20388;-67
2021/10/03 00:20:00;;;;;;;2.30;1.35;;;23.00;51.00;;;;;;5064666;28;20399;-67
2021/10/03 00:22:26;;;;;;;3.22;1.40;;;23.00;51.10;;;;;;5062098;28;20457;-67
2021/10/03 00:24:52;;;;;;;1.90;1.30;;;23.00;51.10;;;;;;5064572;28;20419;-67
2021/10/03 00:27:17;;;;;;;2.17;1.35;;;23.00;51.00;;;;;;5064650;28;20434;-67
2021/10/03 00:29:43;;;;;;;1.50;1.10;;;23.00;51.00;;;;;;5065260;28;20388;-67
2021/10/03 00:32:09;;;;;;;2.10;1.40;;;23.00;51.00;;;;;;5052174;28;20379;-67
2021/10/03 00:34:34;;;;;;;2.47;1.20;;;23.00;51.00;;;;;;5064566;28;20468;-67
2021/10/03 00:37:00;;;;;;;2.63;1.30;;;23.00;51.10;;;;;;5064515;28;20470;-67
2021/10/03 00:39:26;;;;;;;2.40;1.20;;;23.00;50.90;;;;;;5064440;28;21437;-67
2021/10/03 00:41:52;;;;;;;2.13;1.20;;;23.00;51.00;;;;;;5064181;28;20433;-67
2021/10/03 00:44:19;;;;;;;2.25;1.02;;;23.00;51.00;;;;;;5064536;28;20423;-67
2021/10/03 00:46:45;;;;;;;2.10;1.30;;;23.00;51.10;;;;;;5064013;28;20725;-67
2021/10/03 00:49:11;;;;;;;2.65;1.20;;;23.00;50.90;;;;;;5064257;28;20403;-67
2021/10/03 00:51:37;;;;;;;1.92;1.20;;;23.00;51.10;;;;;;5064447;28;20912;-67
2021/10/03 00:54:03;;;;;;;1.83;1.20;;;23.00;50.90;;;;;;5064323;28;20502;-67
2021/10/03 00:56:29;;;;;;;2.15;1.23;;;23.00;50.80;;;;;;5064120;28;20406;-67
2021/10/03 00:58:55;;;;;;;2.40;1.30;;;22.90;50.80;;;;;;5064136;28;20418;-67
2021/10/03 01:01:21;;;;;;;2.05;1.30;;;22.90;50.90;;;;;;5064160;28;20458;-67
2021/10/03 01:03:47;;;;;;;2.90;1.50;;;22.90;50.80;;;;;;5064039;28;20384;-67
2021/10/03 01:06:13;;;;;;;2.33;1.30;;;22.90;50.80;;;;;;5064146;28;20853;-67
2021/10/03 01:08:39;;;;;;;2.13;1.42;;;22.90;50.80;;;;;;5063446;28;20411;-67
2021/10/03 01:11:05;;;;;;;1.73;1.08;;;22.90;50.90;;;;;;5064011;28;20423;-67
2021/10/03 01:13:31;;;;;;;1.90;1.20;;;22.90;50.90;;;;;;5064030;28;20403;-67
2021/10/03 01:15:57;;;;;;;1.43;0.97;;;22.90;50.90;;;;;;5064160;28;20522;-67
2021/10/03 01:18:24;;;;;;;1.63;1.10;;;22.90;50.90;;;;;;5063952;28;20479;-67
2021/10/03 01:20:50;;;;;;;1.70;1.10;;;22.90;50.60;;;;;;5063567;28;20402;-67
2021/10/03 01:23:16;;;;;;;2.80;1.30;;;22.90;50.50;;;;;;5063972;28;20856;-67
2021/10/03 01:25:48;;;;;;;2.05;1.10;;;22.90;50.70;;;;;;5063764;28;20396;-67
2021/10/03 01:28:15;;;;;;;1.75;1.10;;;22.90;50.50;;;;;;5063619;28;20398;-67
2021/10/03 01:30:43;;;;;;;1.63;1.08;;;22.90;50.70;;;;;;5062999;28;20538;-68
2021/10/03 01:33:09;;;;;;;1.60;0.80;;;22.90;50.60;;;;;;5063952;28;20384;-67
2021/10/03 01:35:35;;;;;;;2.13;1.10;;;22.90;50.80;;;;;;5063372;28;20753;-66
2021/10/03 01:38:01;;;;;;;1.77;1.13;;;22.90;50.80;;;;;;5062981;28;20380;-67
2021/10/03 01:40:29;;;;;;;2.30;1.33;;;22.80;50.60;;;;;;5063188;28;20387;-68
2021/10/03 01:42:55;;;;;;;2.53;1.25;;;22.80;50.50;;;;;;5062084;28;20388;-67
2021/10/03 01:45:22;;;;;;;1.52;1.10;;;22.90;50.70;;;;;;5063215;28;20458;-67
2021/10/03 01:48:08;;;;;;;2.03;1.10;;;22.90;50.70;;;;;;5062870;28;20391;-67
2021/10/03 01:50:37;;;;;;;2.40;1.00;;;22.80;50.40;;;;;;5062677;28;20431;-67
2021/10/03 01:53:05;;;;;;;1.60;1.00;;;22.80;50.50;;;;;;5062808;28;20482;-67
2021/10/03 01:55:30;;;;;;;1.48;1.17;;;22.80;50.50;;;;;;5063330;28;20396;-67
2021/10/03 01:57:56;;;;;;;1.80;0.90;;;22.80;50.40;;;;;;5063161;28;20384;-67
2021/10/03 02:00:22;;;;;;;1.90;1.15;;;22.80;50.60;;;;;;5063058;28;20392;-66
2021/10/03 02:03:02;;;;;;;1.88;1.02;;;22.80;50.50;;;;;;5062013;28;20376;-67
2021/10/03 02:05:43;;;;;;;1.55;0.90;;;22.80;50.40;;;;;;5062664;28;20438;-67
2021/10/03 02:08:10;;;;;;;1.52;1.05;;;22.80;50.10;;;;;;5062746;28;20391;-67
2021/10/03 02:10:37;;;;;;;1.30;1.00;;;22.80;50.40;;;;;;5047554;28;20494;-67
2021/10/03 02:13:04;;;;;;;2.00;1.20;;;22.80;50.50;;;;;;5062798;28;20414;-67
2021/10/03 02:15:31;;;;;;;1.63;1.10;;;22.80;51.00;;;;;;5062869;28;20504;-67
2021/10/03 02:17:57;;;;;;;1.40;1.10;;;22.70;50.30;;;;;;5062361;28;20453;-67
2021/10/03 02:20:22;;;;;;;2.53;1.13;;;22.80;50.10;;;;;;5062386;28;20400;-68
2021/10/03 02:22:50;;;;;;;1.65;1.00;;;22.70;50.30;;;;;;5062021;28;20426;-67
2021/10/03 02:25:16;;;;;;;1.45;0.90;;;22.70;50.30;;;;;;5062491;28;20395;-67
2021/10/03 02:27:42;;;;;;;1.50;1.05;;;22.70;50.30;;;;;;5062584;28;20380;-67
2021/10/03 02:30:09;;;;;;;1.63;1.15;;;22.80;50.20;;;;;;5062167;28;20478;-67
2021/10/03 02:32:36;;;;;;;1.35;0.95;;;22.70;50.40;;;;;;5062272;28;20894;-66
2021/10/03 02:35:02;;;;;;;1.90;1.05;;;22.70;50.30;;;;;;5062317;28;20422;-67
2021/10/03 02:37:28;;;;;;;1.40;0.88;;;22.70;50.30;;;;;;5062334;28;20884;-68
2021/10/03 02:39:54;;;;;;;1.43;1.03;;;22.70;50.20;;;;;;5062629;28;20398;-68
2021/10/03 02:42:20;;;;;;;1.30;1.00;;;22.70;50.10;;;;;;5062834;28;20388;-67
2021/10/03 02:44:46;;;;;;;1.60;0.95;;;22.70;50.10;;;;;;5062104;28;21216;-68
2021/10/03 02:47:13;;;;;;;1.77;1.10;;;22.70;50.10;;;;;;5062710;28;20423;-68
2021/10/03 02:49:44;;;;;;;1.42;0.90;;;22.70;50.30;;;;;;5061619;28;20380;-68
2021/10/03 02:52:11;;;;;;;1.10;0.85;;;22.70;50.10;;;;;;5062323;28;20383;-68
2021/10/03 02:54:38;;;;;;;1.35;1.00;;;22.70;50.20;;;;;;5061419;28;20416;-67
2021/10/03 02:57:06;;;;;;;1.70;0.95;;;22.70;50.20;;;;;;5062296;28;20386;-67
2021/10/03 02:59:32;;;;;;;2.03;0.95;;;22.70;50.10;;;;;;5062300;28;20441;-67
2021/10/03 03:01:58;;;;;;;1.63;0.90;;;22.60;50.00;;;;;;5061659;28;20450;-67
2021/10/03 03:04:24;;;;;;;1.47;0.97;;;22.70;50.00;;;;;;5061577;28;20392;-67
2021/10/03 03:06:49;;;;;;;2.53;0.90;;;22.70;50.30;;;;;;5060032;28;20388;-67
2021/10/03 03:09:15;;;;;;;2.20;1.00;;;22.60;50.10;;;;;;5055379;28;20860;-67
2021/10/03 03:11:41;;;;;;;1.92;1.10;;;22.70;50.20;;;;;;5061699;28;21704;-67
2021/10/03 03:14:07;;;;;;;1.73;0.90;;;22.60;49.90;;;;;;5060967;28;21630;-67
2021/10/03 03:16:32;;;;;;;2.50;1.00;;;22.60;49.90;;;;;;5062262;28;20375;-67
2021/10/03 03:18:58;;;;;;;1.70;1.10;;;22.60;50.00;;;;;;5061758;28;20420;-67
2021/10/03 03:21:24;;;;;;;1.35;0.88;;;22.60;50.00;;;;;;5062109;28;20376;-68
2021/10/03 03:23:49;;;;;;;2.10;1.20;;;22.60;50.60;;;;;;5062018;28;20557;-68
2021/10/03 03:26:15;;;;;;;1.88;1.10;;;22.60;50.00;;;;;;5062140;28;20391;-68
2021/10/03 03:28:40;;;;;;;1.33;0.80;;;22.60;50.00;;;;;;5053798;28;20965;-68
2021/10/03 03:31:06;;;;;;;1.38;1.00;;;22.60;50.00;;;;;;5059466;28;20443;-67
2021/10/03 03:33:32;;;;;;;1.40;1.00;;;22.60;49.90;;;;;;5061159;28;20442;-67
2021/10/03 03:35:58;;;;;;;2.00;1.00;;;22.60;50.00;;;;;;5049108;28;20404;-68
2021/10/03 03:38:24;;;;;;;2.17;1.00;;;22.60;49.90;;;;;;5049419;28;20883;-67
2021/10/03 03:40:50;;;;;;;1.25;0.95;;;22.60;49.90;;;;;;5049121;28;20784;-67
2021/10/03 03:43:16;;;;;;;1.45;0.90;;;22.60;50.00;;;;;;5050095;28;20387;-67
2021/10/03 03:45:41;;;;;;;1.48;1.00;;;22.60;49.90;;;;;;5061821;28;21015;-67
2021/10/03 03:48:07;;;;;;;1.67;1.07;;;22.60;49.80;;;;;;5062112;28;20391;-67
2021/10/03 03:50:34;;;;;;;1.60;1.13;;;22.60;50.00;;;;;;5061530;28;20988;-67
2021/10/03 03:53:00;;;;;;;1.20;0.90;;;22.60;50.40;;;;;;5054028;28;20406;-67
2021/10/03 03:55:27;;;;;;;2.03;1.13;;;22.60;49.90;;;;;;5061269;28;20426;-67
2021/10/03 03:57:53;;;;;;;1.45;0.90;;;22.50;49.70;;;;;;5061553;28;20390;-66
2021/10/03 04:00:19;;;;;;;1.58;1.00;;;22.60;49.90;;;;;;5061661;28;20391;-67
2021/10/03 04:02:45;;;;;;;0.98;0.75;;;22.50;49.80;;;;;;5061091;28;20879;-67
2021/10/03 04:05:11;;;;;;;1.58;1.00;;;22.50;49.80;;;;;;5061647;28;20398;-67
2021/10/03 04:07:37;;;;;;;1.47;0.80;;;22.50;49.80;;;;;;5063243;28;21088;-67
2021/10/03 04:10:04;;;;;;;1.70;0.98;;;22.50;49.80;;;;;;5064550;28;20423;-67
2021/10/03 04:12:30;;;;;;;1.10;0.80;;;22.60;49.80;;;;;;5065252;28;20391;-67
2021/10/03 04:14:56;;;;;;;1.35;0.93;;;22.60;49.80;;;;;;5064276;28;20420;-67
2021/10/03 04:17:21;;;;;;;1.17;1.00;;;22.60;49.80;;;;;;5059223;28;20396;-67
2021/10/03 04:19:47;;;;;;;1.92;0.93;;;22.50;49.80;;;;;;5064893;28;20478;-67
2021/10/03 04:22:13;;;;;;;1.40;0.90;;;22.50;49.80;;;;;;5065096;28;20514;-67
2021/10/03 04:24:39;;;;;;;1.63;0.93;;;22.50;49.80;;;;;;5054209;28;20737;-67
2021/10/03 04:27:04;;;;;;;1.40;1.00;;;22.50;50.00;;;;;;5065094;28;20383;-67
2021/10/03 04:29:30;;;;;;;1.83;1.10;;;22.50;49.90;;;;;;5064563;28;20764;-67
2021/10/03 04:31:56;;;;;;;1.50;1.00;;;22.50;49.80;;;;;;5064814;28;20898;-67
2021/10/03 04:34:21;;;;;;;1.40;1.00;;;22.50;50.00;;;;;;5064856;28;20420;-67
2021/10/03 04:36:47;;;;;;;1.30;0.90;;;22.50;49.90;;;;;;5064316;28;20395;-67
2021/10/03 04:39:13;;;;;;;1.58;1.00;;;22.50;49.90;;;;;;5064540;28;20396;-67
2021/10/03 04:41:38;;;;;;;1.30;1.00;;;22.50;49.90;;;;;;5064656;28;20399;-67
2021/10/03 04:44:04;;;;;;;1.13;0.90;;;22.50;49.90;;;;;;5064599;28;20388;-67
2021/10/03 04:46:30;;;;;;;1.38;1.00;;;22.50;49.80;;;;;;5064308;28;20419;-67
2021/10/03 04:48:56;;;;;;;1.33;1.00;;;22.50;49.80;;;;;;5064278;28;20434;-67
2021/10/03 04:51:21;;;;;;;1.85;0.90;;;22.50;49.90;;;;;;5064467;28;20399;-67
2021/10/03 04:53:47;;;;;;;1.15;0.90;;;22.50;49.80;;;;;;5063464;28;21068;-67
2021/10/03 04:56:13;;;;;;;1.57;1.00;;;22.50;49.80;;;;;;5064246;28;20478;-67
2021/10/03 04:58:38;;;;;;;1.30;0.90;;;22.40;49.80;;;;;;5064357;28;20941;-67
2021/10/03 05:01:04;;;;;;;1.17;0.93;;;22.50;49.90;;;;;;5062615;28;20404;-67
2021/10/03 05:03:30;;;;;;;1.42;1.00;;;22.40;49.80;;;;;;5064252;28;20396;-67
2021/10/03 05:05:57;;;;;;;1.20;0.90;;;22.40;49.80;;;;;;5062983;28;20834;-67
2021/10/03 05:08:22;;;;;;;1.45;1.05;;;22.40;49.70;;;;;;5063780;28;20435;-67
2021/10/03 05:10:48;;;;;;;1.70;0.90;;;22.40;49.70;;;;;;5063642;28;20454;-67
2021/10/03 05:13:14;;;;;;;1.47;1.00;;;22.40;49.70;;;;;;5063517;28;20388;-67
2021/10/03 05:15:42;;;;;;;1.80;0.90;;;22.40;49.70;;;;;;5063603;28;20406;-67
2021/10/03 05:18:08;;;;;;;1.40;0.90;;;22.40;49.80;;;;;;5064062;28;20410;-67
2021/10/03 05:20:34;;;;;;;1.70;0.98;;;22.40;49.80;;;;;;5063488;28;20901;-66
2021/10/03 05:22:59;;;;;;;1.30;0.90;;;22.40;49.90;;;;;;5063342;28;20383;-66
2021/10/03 05:25:25;;;;;;;1.15;0.90;;;22.40;49.70;;;;;;5063616;28;20394;-67
2021/10/03 05:27:51;;;;;;;1.55;0.82;;;22.40;49.80;;;;;;5063402;28;20768;-67
2021/10/03 05:30:16;;;;;;;1.20;0.82;;;22.40;49.60;;;;;;5063195;28;20410;-67
2021/10/03 05:32:42;;;;;;;1.58;0.95;;;22.40;49.70;;;;;;5063102;28;20867;-67
2021/10/03 05:35:08;;;;;;;2.70;1.10;;;22.40;49.70;;;;;;5063275;28;20447;-67
2021/10/03 05:37:34;;;;;;;1.60;0.90;;;22.40;49.60;;;;;;5063321;28;20815;-67
2021/10/03 05:40:00;;;;;;;1.40;1.00;;;22.40;49.50;;;;;;5063651;28;20902;-67
2021/10/03 05:42:25;;;;;;;1.43;0.93;;;22.40;49.40;;;;;;5063276;28;20489;-67
2021/10/03 05:44:51;;;;;;;4.60;1.00;;;22.40;49.50;;;;;;5062909;28;20379;-66
2021/10/03 05:47:17;;;;;;;1.50;1.00;;;22.40;49.50;;;;;;5063219;28;20797;-67
2021/10/03 05:49:42;;;;;;;1.30;0.90;;;22.40;49.60;;;;;;5063418;28;20879;-67
2021/10/03 05:52:08;;;;;;;1.40;0.90;;;22.40;49.50;;;;;;5063034;28;20411;-66
2021/10/03 05:54:34;;;;;;;1.40;0.90;;;22.40;49.60;;;;;;5062975;28;20430;-67
2021/10/03 05:56:59;;;;;;;1.80;0.90;;;22.40;49.70;;;;;;5062649;28;20470;-67
2021/10/03 05:59:25;;;;;;;1.30;0.90;;;22.40;49.70;;;;;;5063151;28;20407;-67
2021/10/03 06:01:50;;;;;;;1.30;0.90;;;22.40;49.70;;;;;;5063092;28;20387;-67
2021/10/03 06:04:16;;;;;;;1.33;1.00;;;22.40;49.80;;;;;;5063033;28;20655;-67
2021/10/03 06:06:42;;;;;;;1.88;1.00;;;22.40;49.80;;;;;;5062923;28;20384;-67
2021/10/03 06:09:07;;;;;;;1.50;0.80;;;22.30;49.80;;;;;;5062398;28;20415;-67
2021/10/03 06:11:33;;;;;;;1.75;1.20;;;22.30;49.80;;;;;;5062817;28;20380;-67
2021/10/03 06:13:59;;;;;;;1.63;1.30;;;22.40;49.80;;;;;;5062540;28;20982;-67
2021/10/03 06:16:27;;;;;;;1.67;1.10;;;22.40;49.90;;;;;;5061637;28;20415;-67
2021/10/03 06:18:52;;;;;;;1.97;0.83;;;22.40;50.40;;;;;;5061664;28;20442;-66
2021/10/03 06:21:19;;;;;;;2.70;1.27;;;22.40;49.80;;;;;;5062337;28;20565;-66
2021/10/03 06:23:46;;;;;;;3.08;1.20;;;22.30;49.60;;;;;;5062697;28;20516;-67
2021/10/03 06:26:12;;;;;;;2.10;1.10;;;22.30;50.60;;;;;;5062450;28;20439;-66
2021/10/03 06:28:39;;;;;;;6.50;1.50;;;22.40;49.60;;;;;;5061911;28;20379;-67
2021/10/03 06:31:04;;;;;;;5.50;1.20;;;22.40;49.30;;;;;;5060018;28;20399;-67
2021/10/03 06:33:34;;;;;;;9.40;1.50;;;22.30;49.80;;;;;;5051472;28;20396;-67
2021/10/03 06:35:59;;;;;;;6.63;1.40;;;22.40;50.00;;;;;;5062432;28;20399;-67
2021/10/03 06:38:25;;;;;;;8.40;1.57;;;22.40;50.20;;;;;;5062614;28;20391;-67
2021/10/03 06:40:51;;;;;;;6.93;1.48;;;22.40;50.50;;;;;;5061468;28;20780;-67
2021/10/03 06:43:17;;;;;;;10.10;1.87;;;22.50;50.00;;;;;;5062759;28;20473;-66
2021/10/03 06:45:42;;;;;;;8.55;1.52;;;22.50;50.70;;;;;;5062304;28;20454;-66
2021/10/03 06:48:09;;;;;;;9.10;1.60;;;22.50;51.50;;;;;;5062405;28;20426;-67
2021/10/03 06:50:35;;;;;;;6.18;1.55;;;22.50;50.90;;;;;;5061868;28;20874;-67
2021/10/03 06:53:01;;;;;;;12.32;1.90;;;22.50;51.20;;;;;;5061844;28;20399;-67
2021/10/03 06:55:26;;;;;;;12.83;1.80;;;22.50;51.40;;;;;;5061721;28;20849;-67
2021/10/03 06:57:52;;;;;;;8.73;1.52;;;22.60;51.90;;;;;;5062241;28;20759;-67
2021/10/03 07:00:18;;;;;;;9.10;1.70;;;22.60;52.20;;;;;;5062341;28;20392;-66
2021/10/03 07:02:44;;;;;;;6.55;1.50;;;22.60;52.10;;;;;;5062031;28;20445;-67
2021/10/03 07:05:10;;;;;;;7.33;1.43;;;22.60;52.10;;;;;;5062125;28;20438;-67
2021/10/03 07:07:36;;;;;;;7.38;1.65;;;22.70;52.50;;;;;;5062041;28;20872;-67
2021/10/03 07:10:02;;;;;;;12.32;1.80;;;22.70;52.10;;;;;;5061923;28;20408;-66
2021/10/03 07:12:28;;;;;;;9.47;2.40;;;22.70;51.90;;;;;;5061433;28;20465;-66
2021/10/03 07:14:53;;;;;;;6.78;1.92;;;22.70;52.40;;;;;;5061631;28;20415;-66
2021/10/03 07:17:19;;;;;;;9.03;1.60;;;22.80;52.40;;;;;;5062409;28;20748;-67
2021/10/03 07:19:45;;;;;;;5.53;1.40;;;22.70;52.40;;;;;;5062212;28;20402;-67
2021/10/03 07:22:12;;;;;;;9.77;1.83;;;22.80;52.20;;;;;;5061821;28;20399;-67
2021/10/03 07:24:37;;;;;;;16.92;1.80;;;22.80;52.50;;;;;;5062106;28;20395;-67
2021/10/03 07:27:05;;;;;;;10.63;1.80;;;22.80;53.10;;;;;;5061493;28;20394;-67
2021/10/03 07:29:31;;;;;;;5.35;1.42;;;22.80;52.50;;;;;;5061771;28;20403;-67
2021/10/03 07:31:57;;;;;;;8.35;1.60;;;22.90;52.30;;;;;;5061713;28;20395;-67
2021/10/03 07:34:23;;;;;;;6.57;1.45;;;22.90;52.00;;;;;;5061609;28;20420;-67
2021/10/03 07:36:48;;;;;;;8.55;1.70;;;23.00;52.30;;;;;;5061458;28;20384;-67
2021/10/03 07:39:14;;;;;;;6.25;1.40;;;23.00;52.60;;;;;;5061550;28;21000;-67
2021/10/03 07:41:40;;;;;;;4.67;1.50;;;23.10;52.50;;;;;;5062227;28;20384;-67
2021/10/03 07:44:06;;;;;;;5.22;1.20;;;23.10;52.20;;;;;;5065584;28;20924;-67
2021/10/03 07:46:31;;;;;;;6.13;1.60;;;23.10;52.50;;;;;;5065422;28;20394;-66
2021/10/03 07:48:57;;;;;;;6.10;1.33;;;23.20;52.40;;;;;;5064447;28;20423;-66
2021/10/03 07:51:23;;;;;;;6.07;1.55;;;23.20;52.50;;;;;;5065039;28;20395;-67
2021/10/03 07:53:48;;;;;;;6.72;1.70;;;23.20;51.60;;;;;;5064592;28;20425;-67
2021/10/03 07:56:14;;;;;;;8.23;1.60;;;23.20;51.90;;;;;;5064740;28;20404;-67
2021/10/03 07:58:40;;;;;;;10.43;1.77;;;23.20;51.70;;;;;;5056477;28;20563;-66
2021/10/03 08:01:06;;;;;;;6.68;1.52;;;23.20;52.40;;;;;;5061932;28;20415;-67
2021/10/03 08:03:32;;;;;;;9.60;1.60;;;23.30;52.40;;;;;;5056788;28;20899;-67
2021/10/03 08:05:57;;;;;;;6.43;1.50;;;23.30;52.30;;;;;;5065312;28;20384;-66
2021/10/03 08:08:23;;;;;;;4.47;1.27;;;23.40;51.90;;;;;;5063800;28;20439;-66
2021/10/03 08:10:49;;;;;;;6.80;1.80;;;23.40;51.00;;;;;;5064565;28;20989;-67
2021/10/03 08:13:16;;;;;;;5.10;1.40;;;23.40;51.00;;;;;;5064950;28;20403;-67
2021/10/03 08:15:42;;;;;;;3.72;1.35;;;23.30;49.90;;;;;;5064661;28;20416;-68
2021/10/03 08:18:09;;;;;;;2.75;1.33;;;23.30;49.60;;;;;;5056701;28;20779;-67
2021/10/03 08:20:35;;;;;;;6.78;1.60;;;23.30;49.40;;;;;;5064983;28;20419;-67
2021/10/03 08:23:02;;;;;;;4.70;1.33;;;23.30;49.20;;;;;;5065732;28;20376;-68
2021/10/03 08:25:28;;;;;;;4.60;1.42;;;23.30;49.20;;;;;;5064189;28;20504;-68
2021/10/03 08:27:55;;;;;;;5.05;1.50;;;23.30;49.00;;;;;;5064765;28;21181;-68
2021/10/03 08:30:21;;;;;;;3.10;1.30;;;23.30;48.90;;;;;;5064432;28;20380;-68
2021/10/03 08:32:48;;;;;;;4.43;1.30;;;23.30;49.30;;;;;;5061845;28;20383;-68
2021/10/03 08:35:14;;;;;;;4.60;1.20;;;23.30;49.10;;;;;;5062004;28;20498;-67
2021/10/03 08:37:42;;;;;;;3.90;1.30;;;23.30;48.70;;;;;;5062795;28;20782;-68
2021/10/03 08:40:08;;;;;;;7.78;1.55;;;23.30;48.60;;;;;;5062673;28;20402;-67
2021/10/03 08:42:35;;;;;;;3.53;1.42;;;23.30;48.90;;;;;;5062386;28;20398;-67
2021/10/03 08:45:03;;;;;;;7.75;1.40;;;23.40;48.90;;;;;;5061842;28;20419;-67
2021/10/03 08:47:29;;;;;;;5.72;1.27;;;23.40;48.80;;;;;;5061799;28;20482;-68
2021/10/03 08:49:55;;;;;;;3.35;1.35;;;23.40;48.70;;;;;;5062061;28;20408;-67
2021/10/03 08:52:22;;;;;;;5.57;1.67;;;23.40;48.70;;;;;;5061261;28;20760;-67
2021/10/03 08:54:48;;;;;;;5.30;1.40;;;23.50;48.40;;;;;;5061090;28;20419;-67
2021/10/03 08:57:14;;;;;;;3.40;1.60;;;23.50;48.30;;;;;;5062084;28;20396;-67
2021/10/03 09:00:08;;;;;;;3.77;1.30;;;23.50;48.20;;;;;;5060311;28;20400;-68
2021/10/03 09:02:53;;;;;;;3.20;1.30;;;23.60;48.30;;;;;;5060698;28;20399;-68
2021/10/03 09:05:20;;;;;;;3.25;1.50;;;23.60;48.20;;;;;;5061180;28;20845;-67
2021/10/03 09:08:08;;;;;;;5.90;1.65;;;23.70;48.30;;;;;;5061404;28;20391;-68
2021/10/03 09:10:54;;;;;;;3.25;1.33;;;23.70;48.30;;;;;;5060910;28;20472;-67
2021/10/03 09:13:32;;;;;;;4.77;1.57;;;23.80;48.60;;;;;;5060062;28;21515;-67
2021/10/03 09:16:13;;;;;;;4.07;1.75;;;23.80;48.70;;;;;;5061481;28;20448;-69
2021/10/03 09:18:52;;;;;;;3.60;1.40;;;23.80;48.60;;;;;;5060958;28;20383;-68
2021/10/03 09:21:29;;;;;;;3.20;1.40;;;23.80;48.50;;;;;;5061363;28;20400;-67
2021/10/03 09:24:12;;;;;;;3.17;1.38;;;23.90;48.40;;;;;;5062727;28;20836;-67
2021/10/03 09:26:57;;;;;;;3.30;1.40;;;23.90;48.20;;;;;;5061174;28;20396;-68
2021/10/03 09:29:25;;;;;;;2.95;1.25;;;23.90;48.30;;;;;;5060419;28;20400;-68
2021/10/03 09:32:11;;;;;;;3.70;1.30;;;23.90;48.30;;;;;;5062165;28;20906;-67
2021/10/03 09:34:39;;;;;;;2.85;1.30;;;24.00;48.10;;;;;;5053780;28;20438;-68
2021/10/03 09:37:28;;;;;;;4.28;1.60;;;24.10;47.90;;;;;;5060437;28;20391;-67
2021/10/03 09:40:13;;;;;;;4.77;1.60;;;24.10;48.00;;;;;;5062297;28;20907;-67
2021/10/03 09:42:42;;;;;;;4.22;1.30;;;24.10;47.90;;;;;;5061539;28;20555;-67
2021/10/03 09:45:14;;;;;;;3.13;1.33;;;24.20;48.00;;;;;;5061816;28;20383;-68
2021/10/03 09:47:44;;;;;;;3.30;1.20;;;24.30;47.80;;;;;;5061734;28;20884;-67
2021/10/03 09:50:13;;;;;;;1.98;1.25;;;24.30;47.70;;;;;;5060093;28;20427;-67
2021/10/03 09:52:40;;;;;;;2.60;1.20;;;24.30;47.50;;;;;;5061795;28;20422;-67
2021/10/03 09:55:10;;;;;;;2.83;1.30;;;24.40;47.40;;;;;;5061379;28;20428;-67
2021/10/03 09:57:39;;;;;;;4.30;1.40;;;24.40;47.10;;;;;;5061068;28;20399;-67
2021/10/03 10:00:06;;;;;;;1.92;1.20;;;24.50;47.30;;;;;;5061365;28;20890;-67
2021/10/03 10:02:32;;;;;;;2.35;1.20;;;24.50;46.80;;;;;;5061297;28;20383;-67
2021/10/03 10:04:58;;;;;;;2.45;1.30;;;24.60;46.60;;;;;;5059894;28;20396;-67
2021/10/03 10:07:25;;;;;;;2.50;1.30;;;24.70;46.60;;;;;;5062627;28;20843;-67
2021/10/03 10:09:51;;;;;;;2.92;1.23;;;24.70;46.80;;;;;;5063176;28;21033;-67
2021/10/03 10:12:23;;;;;;;4.30;1.45;;;24.80;46.70;;;;;;5063262;28;20471;-67
2021/10/03 10:14:57;;;;;;;4.70;1.60;;;24.90;46.80;;;;;;5062198;28;20419;-67
2021/10/03 10:17:26;;;;;;;3.67;1.40;;;24.90;46.70;;;;;;5063060;28;20380;-67
2021/10/03 10:19:54;;;;;;;5.63;1.48;;;25.00;46.70;;;;;;5063078;28;20399;-67
2021/10/03 10:22:24;;;;;;;3.58;1.40;;;25.00;46.50;;;;;;5063242;28;20423;-67
2021/10/03 10:24:52;;;;;;;2.15;1.35;;;25.10;46.70;;;;;;5063310;28;20396;-67
2021/10/03 10:27:21;;;;;;;4.35;1.20;;;25.20;46.70;;;;;;5062841;28;20363;-67
2021/10/03 10:29:51;;;;;;;2.72;1.25;;;25.30;46.60;;;;;;5063421;28;20418;-67
2021/10/03 10:32:17;;;;;;;4.57;1.38;;;25.30;46.40;;;;;;5063778;28;20380;-67
2021/10/03 10:35:20;;;;;;;5.07;1.48;;;25.20;46.70;;;;;;5062934;28;20552;-67
2021/10/03 10:37:49;;;;;;;2.45;1.33;;;25.00;47.10;;;;;;5062988;28;20463;-68
2021/10/03 10:40:24;;;;;;;3.80;1.20;;;24.90;47.80;;;;;;5063433;28;20788;-67
2021/10/03 10:43:03;;;;;;;3.30;1.10;;;24.80;48.00;;;;;;5062529;28;20396;-67
2021/10/03 10:45:30;;;;;;;3.20;1.20;;;24.70;47.90;;;;;;5062491;28;20407;-67
2021/10/03 10:48:10;;;;;;;2.85;1.15;;;24.70;48.00;;;;;;5062608;28;20379;-67
2021/10/03 10:50:54;;;;;;;2.92;1.20;;;24.60;47.70;;;;;;5062302;28;20427;-67
2021/10/03 10:53:24;;;;;;;2.35;1.10;;;24.60;48.00;;;;;;5062325;28;20496;-67
2021/10/03 10:56:09;;;;;;;2.83;1.08;;;24.60;48.00;;;;;;5059743;28;20416;-67
2021/10/03 10:58:38;;;;;;;2.53;1.30;;;24.50;48.00;;;;;;5062751;28;20495;-67
2021/10/03 11:01:11;;;;;;;2.10;1.10;;;24.50;47.70;;;;;;5062215;28;20388;-68
2021/10/03 11:03:43;;;;;;;1.52;1.02;;;24.50;48.20;;;;;;5062805;28;20437;-67
2021/10/03 11:06:13;;;;;;;1.85;1.20;;;24.50;47.90;;;;;;5062765;28;20935;-67
2021/10/03 11:08:59;;;;;;;2.28;1.15;;;24.40;48.40;;;;;;5061951;28;20949;-68
2021/10/03 11:11:27;;;;;;;2.85;1.20;;;24.50;48.50;;;;;;5062656;28;20492;-67
2021/10/03 11:13:57;;;;;;;2.60;1.02;;;24.40;48.70;;;;;;5062407;28;20418;-68
2021/10/03 11:16:43;;;;;;;2.60;1.10;;;24.50;49.00;;;;;;5066033;28;20494;-67
2021/10/03 11:19:16;;;;;;;2.38;1.17;;;24.50;49.20;;;;;;5069144;28;20391;-67
2021/10/03 11:21:52;;;;;;;1.80;1.10;;;24.50;49.40;;;;;;5069510;28;20391;-67
2021/10/03 11:24:30;;;;;;;1.48;1.00;;;24.50;49.60;;;;;;5068664;28;20826;-68
2021/10/03 11:27:01;;;;;;;2.08;1.10;;;24.50;49.60;;;;;;5068230;28;20474;-67
2021/10/03 11:29:32;;;;;;;1.73;1.00;;;24.50;49.70;;;;;;5069155;28;20439;-67
2021/10/03 11:32:01;;;;;;;3.30;1.17;;;24.50;49.50;;;;;;5069030;28;20470;-67
2021/10/03 11:34:47;;;;;;;2.00;1.10;;;24.50;49.30;;;;;;5068760;28;20411;-67
2021/10/03 11:37:15;;;;;;;2.72;1.20;;;24.40;48.80;;;;;;5068362;28;20370;-67
2021/10/03 11:39:53;;;;;;;1.77;1.20;;;24.40;48.80;;;;;;5067950;28;20406;-67
2021/10/03 11:42:34;;;;;;;2.70;1.10;;;24.40;48.70;;;;;;5068806;28;20387;-67
2021/10/03 11:45:23;;;;;;;2.13;1.20;;;24.40;48.70;;;;;;5067097;28;20391;-67
2021/10/03 11:47:58;;;;;;;1.77;0.93;;;24.30;48.50;;;;;;5063724;28;20792;-67
2021/10/03 11:50:46;;;;;;;2.17;1.17;;;24.30;48.50;;;;;;5068736;28;20410;-67
2021/10/03 11:53:20;;;;;;;3.20;1.05;;;24.30;48.40;;;;;;5068713;28;20399;-68
2021/10/03 11:55:48;;;;;;;2.05;1.17;;;24.30;48.40;;;;;;5068782;28;20852;-67
2021/10/03 11:58:19;;;;;;;1.67;0.95;;;24.30;48.30;;;;;;5065413;28;20387;-67
2021/10/03 12:01:00;;;;;;;2.00;1.10;;;24.30;48.40;;;;;;5066919;28;21024;-67
2021/10/03 12:03:29;;;;;;;1.48;1.00;;;24.30;48.30;;;;;;5067335;28;20402;-67
2021/10/03 12:05:56;;;;;;;1.30;1.00;;;24.30;48.40;;;;;;5067241;28;20391;-67
2021/10/03 12:08:22;;;;;;;1.57;1.00;;;24.30;48.40;;;;;;5067044;28;20403;-67
2021/10/03 12:10:55;;;;;;;1.42;1.15;;;24.30;48.30;;;;;;5067879;28;20410;-67
2021/10/03 12:13:24;;;;;;;2.30;1.00;;;24.30;48.30;;;;;;5066678;28;21045;-67
2021/10/03 12:16:02;;;;;;;1.83;1.08;;;24.30;48.20;;;;;;5067432;28;20415;-67
2021/10/03 12:18:30;;;;;;;1.45;0.90;;;24.30;48.20;;;;;;5067781;28;20394;-67
2021/10/03 12:21:09;;;;;;;1.70;1.10;;;24.30;48.20;;;;;;5067694;28;20402;-67
2021/10/03 12:23:55;;;;;;;1.63;1.00;;;24.30;48.20;;;;;;5067093;28;20449;-67
2021/10/03 12:26:45;;;;;;;3.42;1.20;;;24.30;48.20;;;;;;5067282;28;20396;-66
2021/10/03 12:29:26;;;;;;;2.08;1.20;;;24.30;48.30;;;;;;5062770;28;20399;-67
2021/10/03 12:32:08;;;;;;;2.47;1.38;;;24.40;48.80;;;;;;5064207;28;20434;-68
2021/10/03 12:35:01;;;;;;;6.32;1.50;;;24.40;49.40;;;;;;5059476;28;20411;-67
2021/10/03 12:37:32;;;;;;;4.32;1.42;;;24.40;49.20;;;;;;5062305;28;20396;-68
2021/10/03 12:39:57;;;;;;;2.72;1.38;;;24.40;49.30;;;;;;5064164;28;20396;-68
2021/10/03 12:42:27;;;;;;;2.35;1.20;;;24.50;49.10;;;;;;5065105;28;20713;-68
2021/10/03 12:44:55;;;;;;;3.97;1.42;;;24.50;49.20;;;;;;5065231;28;20399;-68
2021/10/03 12:47:22;;;;;;;5.20;1.25;;;24.60;49.10;;;;;;5064061;28;20388;-68
2021/10/03 12:49:48;;;;;;;7.55;1.55;;;24.60;49.30;;;;;;5064113;28;20729;-67
2021/10/03 12:52:16;;;;;;;4.18;1.38;;;24.60;49.30;;;;;;5061275;28;20461;-67